Flight Track Log - Related Links

Times and Time Zones

All times are in EDT time to prevent confusion due to time zone crossing. See the ACA831 flight status page for this flight to view local times or setup timezone preferences in your user account.

Time Position Orientation Groundspeed Altitude Reporting Facility
EDT Latitude Longitude Course Direction KTS MPH feet Rate Location/Type
Mon 06:22:17 AM 46.2330 6.1060 North 6 7  Level FlightAware ADS-B
Mon 06:22:47 AM 46.2330 6.1050 270° West 8 9 170 Level FlightAware ADS-B
Mon 06:23:07 AM 46.2320 6.1040 215° Southwest 8 9 179 Level FlightAware ADS-B
Mon 06:23:27 AM 46.2320 6.1030 270° West 8 9 185 Level FlightAware ADS-B
Mon 06:23:47 AM 46.2310 6.1030 180° South 8 9 191 Level FlightAware ADS-B
Mon 06:24:32 AM 46.2300 6.1010 234° Southwest 11 13 198 Level FlightAware ADS-B
Mon 06:24:52 AM 46.2290 6.1000 215° Southwest 11 13 216 Level FlightAware ADS-B
Mon 06:25:32 AM 46.2280 6.0970 244° Southwest 13 15 225 Level FlightAware ADS-B
Mon 06:25:52 AM 46.2270 6.0960 215° Southwest 11 13 245 Level FlightAware ADS-B
Mon 06:26:21 AM 46.2260 6.0950 215° Southwest 7 8 257 Level FlightAware ADS-B
Mon 06:26:45 AM 46.2260 6.0940 270° West 4 5 276 Level FlightAware ADS-B
Mon 06:29:00 AM 46.3205 5.7374 294° West  Level FlightAware Approximate
Mon 06:29:40 AM 46.2260 6.0930 294° West  Level FlightAware ADS-B
Mon 06:31:27 AM 46.2260 6.0920 270° West 9 10 563 Level FlightAware ADS-B
Mon 06:31:57 AM 46.2270 6.0920 360° North 13 15 1,271 Level FlightAware ADS-B
Mon 06:32:17 AM 46.2310 6.0980 46° Northeast 105 121 1,964 Level FlightAware ADS-B
Mon 06:32:52 AM 46.2500 6.1270 47° Northeast 188 216 1,800 2,945 Climbing FlightAware ADS-B
Mon 06:33:12 AM 46.2600 6.1440 50° Northeast 189 217 2,700 2,700 Climbing FlightAware ADS-B
Mon 06:33:32 AM 46.2750 6.1650 44° Northeast 193 222 3,600 2,550 Climbing FlightAware ADS-B
Mon 06:33:52 AM 46.2880 6.1840 45° Northeast 208 239 4,400 1,950 Climbing FlightAware ADS-B
Mon 06:34:12 AM 46.3020 6.2040 45° Northeast 227 261 4,900 1,350 Climbing FlightAware ADS-B
Mon 06:34:32 AM 46.3180 6.2290 47° Northeast 256 295 5,300 1,800 Climbing FlightAware ADS-B
Mon 06:35:02 AM 46.3440 6.2670 45° Northeast 280 322 6,400 2,520 Climbing FlightAware ADS-B
Mon 06:35:22 AM 46.3620 6.2940 46° Northeast 285 328 7,400 3,000 Climbing FlightAware ADS-B
Mon 06:35:42 AM 46.3830 6.3200 40° Northeast 286 329 8,400 2,914 Climbing FlightAware ADS-B
Mon 06:35:57 AM 46.4020 6.3270 14° North 289 333 9,100 3,086 Climbing FlightAware ADS-B
Mon 06:36:17 AM 46.4290 6.3200 350° North 288 331 10,200 2,200 Climbing FlightAware ADS-B
Mon 06:36:57 AM 46.4820 6.2890 338° Northwest 335 386 11,300 1,742 Climbing FlightAware ADS-B
Mon 06:37:50 AM 46.5670 6.2350 336° Northwest 391 450 12,900 2,055 Climbing FlightAware ADS-B
Mon 06:38:10 AM 46.5960 6.2070 326° Northwest 391 450 13,800 2,951 Climbing FlightAware ADS-B
Mon 06:38:51 AM 46.6370 6.1150 303° West 402 463 15,900 2,889 Climbing FlightAware ADS-B
Mon 06:39:31 AM 46.6680 6.0220 296° West 408 470 17,700 2,625 Climbing FlightAware ADS-B
Mon 06:40:11 AM 46.7030 5.9170 296° West 420 483 19,400 2,550 Climbing FlightAware ADS-B
Mon 06:40:51 AM 46.7370 5.8130 296° West 424 488 21,100 2,400 Climbing FlightAware ADS-B
Mon 06:41:21 AM 46.7690 5.7390 302° West 430 495 22,200 2,100 Climbing FlightAware ADS-B
Mon 06:42:11 AM 46.8390 5.6240 312° West 448 516 23,900 1,915 Climbing FlightAware ADS-B
Mon 06:42:55 AM 46.9010 5.5280 313° West 459 528 25,200 1,857 Climbing FlightAware ADS-B
Mon 06:43:35 AM 46.9610 5.4350 313° West 466 536 26,500 1,950 Climbing FlightAware ADS-B
Mon 06:44:15 AM 47.0190 5.3430 313° West 468 539 27,800 2,250 Climbing FlightAware ADS-B
Mon 06:44:55 AM 47.0770 5.2490 312° West 460 529 29,500 2,250 Climbing FlightAware ADS-B
Mon 06:45:27 AM 47.1230 5.1740 312° West 458 527 30,500 1,886 Climbing FlightAware ADS-B
Mon 06:46:05 AM 47.1770 5.0860 312° West 456 525 31,700 1,324 Climbing FlightAware ADS-B
Mon 06:46:35 AM 47.2180 5.0200 312° West 453 521 32,000 237 Climbing FlightAware ADS-B
Mon 06:47:21 AM 47.2820 4.9150 312° West 447 514 32,000  Level FlightAware ADS-B
Mon 06:47:59 AM 47.3340 4.8300 312° West 446 513 32,000  Level FlightAware ADS-B
Mon 06:48:53 AM 47.4070 4.7100 312° West 446 513 32,000  Level FlightAware ADS-B
Mon 06:49:32 AM 47.4620 4.6180 312° West 447 514 32,000  Level FlightAware ADS-B
Mon 06:50:12 AM 47.5160 4.5280 312° West 446 513 32,000  Level FlightAware ADS-B
Mon 06:50:52 AM 47.5700 4.4390 312° West 447 514 32,000  Level FlightAware ADS-B
Mon 06:51:22 AM 47.6110 4.3700 311° West 447 514 32,000  Level FlightAware ADS-B
Mon 06:52:04 AM 47.6690 4.2720 311° West 447 514 32,000  Level FlightAware ADS-B
Mon 06:52:44 AM 47.7230 4.1810 311° West 447 514 32,000  Level FlightAware ADS-B
Mon 06:53:24 AM 47.7770 4.0910 312° West 447 514 32,000  Level FlightAware ADS-B
Mon 06:54:06 AM 47.8340 3.9930 311° West 447 514 32,000  Level FlightAware ADS-B
Mon 06:54:51 AM 47.8970 3.8860 311° West 448 516 32,000  Level FlightAware ADS-B
Mon 06:55:28 AM 47.9430 3.8080 311° West 448 516 32,000  Level FlightAware ADS-B
Mon 06:56:08 AM 48.0010 3.7080 311° West 448 516 32,000  Level FlightAware ADS-B
Mon 06:56:50 AM 48.0600 3.6070 311° West 448 516 32,000  Level FlightAware ADS-B
Mon 06:57:22 AM 48.1020 3.5340 311° West 448 516 32,000  Level FlightAware ADS-B
Mon 06:58:02 AM 48.1580 3.4380 311° West 447 514 32,000  Level FlightAware ADS-B
Mon 06:58:42 AM 48.2100 3.3470 311° West 446 513 32,000  Level FlightAware ADS-B
Mon 06:59:23 AM 48.2660 3.2500 311° West 446 513 32,000  Level FlightAware ADS-B
Mon 06:59:55 AM 48.3090 3.1740 310° West 446 513 32,000  Level FlightAware ADS-B
Mon 07:00:35 AM 48.3600 3.0850 311° West 445 512 32,000  Level FlightAware ADS-B
Mon 07:01:26 AM 48.4210 2.9570 306° West 432 497 32,000  Level FlightAware ADS-B
Mon 07:02:08 AM 48.4470 2.8360 288° West 430 495 32,000  Level FlightAware ADS-B
Mon 07:02:48 AM 48.4670 2.7200 285° West 431 496 32,000  Level FlightAware ADS-B
Mon 07:03:28 AM 48.4830 2.6110 283° West 431 496 32,000  Level FlightAware ADS-B
Mon 07:03:58 AM 48.4970 2.5240 284° West 431 496 32,000  Level FlightAware ADS-B
Mon 07:04:38 AM 48.5170 2.4030 284° West 431 496 32,000  Level FlightAware ADS-B
Mon 07:05:41 AM 48.5470 2.2120 283° West 429 494 32,000  Level FlightAware ADS-B
Mon 07:06:11 AM 48.5600 2.1270 283° West 428 493 32,000  Level FlightAware ADS-B
Mon 07:06:13 AM 48.5628 2.1203 283° West 1 1 32,000  Level FlightAware UK
Mon 07:06:43 AM 48.5749 2.0322 283° West 474 545 32,000  Level FlightAware UK
Mon 07:07:19 AM 48.5908 1.9277 283° West 474 545 32,000  Level FlightAware UK
Mon 07:07:25 AM 48.5920 1.9150 283° West 429 494 32,000 286 Level FlightAware ADS-B
Mon 07:08:01 AM 48.6090 1.8040 283° West 432 497 32,200 417 Climbing FlightAware ADS-B
Mon 07:08:37 AM 48.6244 1.6984 283° West 480 552 32,500 545 Climbing FlightAware UK
Mon 07:08:45 AM 48.6280 1.6770 283° West 432 497 32,600 1,080 Climbing FlightAware ADS-B
Mon 07:09:27 AM 48.6460 1.5520 282° West 426 490 33,400 1,054 Climbing FlightAware ADS-B
Mon 07:09:59 AM 48.6590 1.4600 282° West 423 487 33,900 500 Climbing FlightAware ADS-B
Mon 07:10:39 AM 48.6750 1.3500 282° West 420 483 34,000 77 Climbing FlightAware ADS-B
Mon 07:11:17 AM 48.6910 1.2420 283° West 415 478 34,000  Level FlightAware ADS-B
Mon 07:12:11 AM 48.7120 1.0970 283° West 414 476 34,000  Level FlightAware ADS-B
Mon 07:12:13 AM 48.7141 1.0789 283° West 466 536 34,000  Level FlightAware UK
Mon 07:12:48 AM 48.7281 0.9775 283° West 468 539 34,000  Level FlightAware UK
Mon 07:12:51 AM 48.7290 0.9720 283° West 414 476 34,000  Level FlightAware ADS-B
Mon 07:13:24 AM 48.7425 0.8758 283° West 468 539 34,000  Level FlightAware UK
Mon 07:13:35 AM 48.7470 0.8480 283° West 413 475 34,000  Level FlightAware ADS-B
Mon 07:14:15 AM 48.7630 0.7340 282° West 413 475 34,000  Level FlightAware ADS-B
Mon 07:14:45 AM 48.7740 0.6540 282° West 413 475 34,000  Level FlightAware ADS-B
Mon 07:15:25 AM 48.7890 0.5360 281° West 412 474 34,000  Level FlightAware ADS-B
Mon 07:16:07 AM 48.7980 0.4150 276° West 410 472 34,000  Level FlightAware ADS-B
Mon 07:16:42 AM 48.8038 0.3152 276° West 470 541 34,000  Level FlightAware UK
Mon 07:16:49 AM 48.8050 0.2970 276° West 410 472 34,000  Level FlightAware ADS-B
Mon 07:17:17 AM 48.8100 0.2150 275° West 410 472 34,000  Level FlightAware ADS-B
Mon 07:18:01 AM 48.8180 0.0930 276° West 409 471 34,000  Level FlightAware ADS-B
Mon 07:18:41 AM 48.8250 -0.0200 275° West 409 471 34,000  Level FlightAware ADS-B
Mon 07:19:22 AM 48.8310 -0.1350 275° West 409 471 34,000  Level FlightAware ADS-B
Mon 07:19:49 AM 48.8360 -0.2150 275° West 408 470 34,000  Level FlightAware ADS-B
Mon 07:19:53 AM 48.8363 -0.2313 275° West 472 543 34,000  Level FlightAware UK
Mon 07:20:29 AM 48.8415 -0.3338 275° West 470 541 34,000  Level FlightAware UK
Mon 07:20:33 AM 48.8430 -0.3440 275° West 408 470 34,000  Level FlightAware ADS-B
Mon 07:21:11 AM 48.8477 -0.4526 275° West 472 543 34,000  Level FlightAware UK
Mon 07:21:34 AM 48.8520 -0.5060 275° West 407 468 34,000  Level FlightAware ADS-B
Mon 07:22:01 AM 48.8560 -0.5940 274° West 407 468 34,000  Level FlightAware ADS-B
Mon 07:22:47 AM 48.8630 -0.7210 275° West 406 467 34,000  Level FlightAware ADS-B
Mon 07:23:13 AM 48.8660 -0.7960 274° West 406 467 34,000  Level FlightAware ADS-B
Mon 07:23:55 AM 48.8730 -0.9170 275° West 406 467 34,000  Level FlightAware ADS-B
Mon 07:24:37 AM 48.8800 -1.0350 275° West 405 466 34,000  Level FlightAware ADS-B
Mon 07:25:17 AM 48.8850 -1.1430 274° West 405 466 34,000  Level FlightAware ADS-B
Mon 07:25:47 AM 48.8900 -1.2320 275° West 404 465 34,000  Level FlightAware ADS-B
Mon 07:26:30 AM 48.8960 -1.3520 274° West 404 465 34,000  Level FlightAware ADS-B
Mon 07:27:10 AM 48.9030 -1.4640 274° West 404 465 34,000  Level FlightAware ADS-B
Mon 07:27:11 AM 48.9024 -1.4706 274° West 470 541 34,000  Level FlightAware UK
Mon 07:27:47 AM 48.9065 -1.5718 274° West 470 541 34,000  Level FlightAware UK
Mon 07:27:55 AM 48.9080 -1.5930 274° West 402 463 34,000  Level FlightAware ADS-B
Mon 07:28:35 AM 48.9120 -1.7060 273° West 402 463 34,000  Level FlightAware ADS-B
Mon 07:29:05 AM 48.9160 -1.7890 273° West 402 463 34,000  Level FlightAware ADS-B
Mon 07:29:10 AM 48.9157 -1.8078 273° West 474 545 34,000  Level FlightAware UK
Mon 07:29:45 AM 48.9200 -1.9030 273° West 401 461 34,000  Level FlightAware ADS-B
Mon 07:30:25 AM 48.9250 -2.0130 273° West 400 460 34,000  Level FlightAware ADS-B
Mon 07:30:28 AM 48.9247 -2.0270 273° West 470 541 34,000  Level FlightAware UK
Mon 07:31:18 AM 48.9300 -2.1630 273° West 399 459 34,000  Level FlightAware ADS-B
Mon 07:31:58 AM 48.9340 -2.2690 273° West 400 460 34,000  Level FlightAware ADS-B
Mon 07:32:27 AM 48.9370 -2.3590 273° West 400 460 34,000  Level FlightAware ADS-B
Mon 07:32:34 AM 48.9373 -2.3790 273° West 468 539 34,000  Level FlightAware UK
Mon 07:33:08 AM 48.9410 -2.4690 273° West 399 459 34,000  Level FlightAware ADS-B
Mon 07:33:10 AM 48.9409 -2.4795 273° West 470 541 34,000  Level FlightAware UK
Mon 07:33:40 AM 48.9438 -2.5638 273° West 470 541 34,000  Level FlightAware UK
Mon 07:33:49 AM 48.9450 -2.5870 273° West 400 460 34,000  Level FlightAware ADS-B
Mon 07:34:27 AM 48.9490 -2.6950 273° West 400 460 34,000  Level FlightAware ADS-B
Mon 07:35:03 AM 48.9520 -2.7920 273° West 400 460 34,000  Level FlightAware ADS-B
Mon 07:35:43 AM 48.9560 -2.9070 273° West 400 460 34,000  Level FlightAware ADS-B
Mon 07:36:23 AM 48.9590 -3.0180 272° West 399 459 34,000  Level FlightAware ADS-B
Mon 07:36:55 AM 48.9610 -3.1090 272° West 398 458 34,000  Level FlightAware ADS-B
Mon 07:37:35 AM 48.9530 -3.2120 263° West 395 455 34,000  Level FlightAware ADS-B
Mon 07:38:01 AM 48.9470 -3.2860 263° West 395 455 34,000  Level FlightAware ADS-B
Mon 07:38:45 AM 48.9360 -3.4100 262° West 395 455 34,000  Level FlightAware ADS-B
Mon 07:39:37 AM 48.9230 -3.5520 262° West 397 457 34,000  Level FlightAware ADS-B
Mon 07:40:17 AM 48.9110 -3.6630 261° West 401 461 34,000  Level FlightAware ADS-B
Mon 07:41:19 AM 48.9070 -3.8380 268° West 412 474 34,000  Level FlightAware ADS-B
Mon 07:41:59 AM 48.9120 -3.9550 274° West 417 480 34,000  Level FlightAware ADS-B
Mon 07:42:41 AM 48.9160 -4.0790 273° West 422 486 34,000  Level FlightAware ADS-B
Mon 07:43:13 AM 48.9200 -4.1760 274° West 425 489 34,000  Level FlightAware ADS-B
Mon 07:43:55 AM 48.9240 -4.3020 273° West 430 495 34,000  Level FlightAware ADS-B
Mon 07:44:36 AM 48.9290 -4.4250 274° West 434 499 34,000  Level FlightAware ADS-B
Mon 07:45:18 AM 48.9330 -4.5500 273° West 438 504 34,000  Level FlightAware ADS-B
Mon 07:45:58 AM 48.9380 -4.6780 273° West 441 507 34,000  Level FlightAware ADS-B
Mon 07:46:30 AM 48.9410 -4.7760 273° West 443 510 34,000  Level FlightAware ADS-B
Mon 07:47:10 AM 48.9450 -4.9000 273° West 442 509 34,000  Level FlightAware ADS-B
Mon 07:47:50 AM 48.9480 -5.0250 272° West 443 510 34,000  Level FlightAware ADS-B
Mon 07:48:22 AM 48.9520 -5.1240 274° West 444 511 34,000  Level FlightAware ADS-B
Mon 07:49:12 AM 48.9560 -5.2780 272° West 445 512 34,000  Level FlightAware ADS-B
Mon 07:49:44 AM 48.9590 -5.3810 273° West 444 511 34,000  Level FlightAware ADS-B
Mon 07:50:24 AM 48.9620 -5.5010 272° West 444 511 34,000  Level FlightAware ADS-B
Mon 07:50:52 AM 48.9640 -5.5880 272° West 443 510 34,000  Level FlightAware ADS-B
Mon 07:51:35 AM 48.9670 -5.7190 272° West 443 510 34,000  Level FlightAware ADS-B
Mon 07:52:18 AM 48.9710 -5.8580 273° West 443 510 34,000  Level FlightAware ADS-B
Mon 07:52:54 AM 48.9730 -5.9700 272° West 443 510 34,000  Level FlightAware ADS-B
Mon 07:53:30 AM 48.9760 -6.0830 272° West 443 510 34,000  Level FlightAware ADS-B
Mon 07:54:09 AM 48.9780 -6.2010 272° West 442 509 34,000  Level FlightAware ADS-B
Mon 07:54:53 AM 48.9810 -6.3380 272° West 440 506 34,000  Level FlightAware ADS-B
Mon 07:55:33 AM 48.9830 -6.4640 271° West 440 506 34,000  Level FlightAware ADS-B
Mon 07:56:13 AM 48.9850 -6.5850 271° West 439 505 34,000  Level FlightAware ADS-B
Mon 07:56:55 AM 48.9870 -6.7140 271° West 438 504 34,000  Level FlightAware ADS-B
Mon 07:57:25 AM 48.9900 -6.8070 273° West 434 499 34,000  Level FlightAware ADS-B
Mon 07:58:17 AM 48.9970 -6.9650 274° West 434 499 34,000  Level FlightAware ADS-B
Mon 07:58:51 AM 49.0010 -7.0690 273° West 434 499 34,000  Level FlightAware ADS-B
Mon 07:59:29 AM 49.0040 -7.1860 272° West 434 499 34,000  Level FlightAware ADS-B
Mon 08:00:09 AM 49.0080 -7.3060 273° West 433 498 34,000  Level FlightAware ADS-B
Mon 08:00:43 AM 49.0110 -7.4080 273° West 432 497 34,000  Level FlightAware ADS-B
Mon 08:01:23 AM 49.0150 -7.5320 273° West 432 497 34,000  Level FlightAware ADS-B
Mon 08:01:52 AM 49.0180 -7.6210 273° West 431 496 34,000  Level FlightAware ADS-B
Mon 08:02:33 AM 49.0210 -7.7370 272° West 430 495 34,000  Level FlightAware ADS-B
Mon 08:03:17 AM 49.0250 -7.8730 273° West 430 495 34,000  Level FlightAware ADS-B
Mon 08:03:53 AM 49.0280 -7.9840 272° West 430 495 34,000  Level FlightAware ADS-B
Mon 08:04:25 AM 49.0310 -8.0800 273° West 431 496 34,000  Level FlightAware ADS-B
Mon 08:05:15 AM 49.0340 -8.2310 272° West 431 496 34,000  Level FlightAware ADS-B
Mon 08:06:21 AM 49.0390 -8.4180 272° West 431 496 34,000  Level FlightAware ADS-B
Mon 08:07:07 AM 49.0410 -8.5370 272° West 431 496 34,000  Level FlightAware ADS-B
Mon 08:07:44 AM 49.0440 -8.6330 273° West 431 496 34,000  Level FlightAware ADS-B
Mon 08:08:22 AM 49.0460 -8.7310 272° West 431 496 34,000  Level FlightAware ADS-B
Mon 08:09:11 AM 49.0490 -8.8580 272° West 431 496 34,000  Level FlightAware ADS-B
Mon 08:09:59 AM 49.0510 -8.9820 271° West 431 496 34,000  Level FlightAware ADS-B
Mon 08:10:35 AM 49.0540 -9.0750 273° West 431 496 34,000  Level FlightAware ADS-B
Mon 08:11:31 AM 49.0570 -9.2190 272° West 431 496 34,000  Level FlightAware ADS-B
Mon 08:12:19 AM 49.0600 -9.3430 272° West 431 496 34,000  Level FlightAware ADS-B
Mon 08:12:56 AM 49.0620 -9.4390 272° West 431 496 34,000  Level FlightAware ADS-B
Mon 08:13:32 AM 49.0640 -9.5320 272° West 431 496 34,000  Level FlightAware ADS-B
Mon 08:14:21 AM 49.0670 -9.6590 272° West 431 496 34,000  Level FlightAware ADS-B
Mon 08:15:09 AM 49.0700 -9.7830 272° West 431 496 34,000  Level FlightAware ADS-B
Mon 08:15:44 AM 49.0720 -9.8730 272° West 431 496 34,000 51 Level FlightAware ADS-B
Mon 08:18:00 AM 49.1421 -10.2655 285° West  Level FlightAware Approximate
Mon 08:19:00 AM 49.1726 -10.4391 285° West  Level FlightAware Approximate
Mon 08:20:00 AM 49.2028 -10.6128 285° West  Level FlightAware Approximate
Mon 08:21:00 AM 49.2328 -10.7868 285° West  Level FlightAware Approximate
Mon 08:22:00 AM 49.2625 -10.9610 285° West  Level FlightAware Approximate
Mon 08:23:00 AM 49.2919 -11.1353 285° West  Level FlightAware Approximate
Mon 08:24:00 AM 49.3310 -11.3053 277° West  Level Estimated
Mon 08:25:00 AM 49.3431 -11.4847 276° West  Level FlightAware Approximate
Mon 08:26:00 AM 49.3548 -11.6642 276° West  Level FlightAware Approximate
Mon 08:27:00 AM 49.3663 -11.8438 276° West  Level FlightAware Approximate
Mon 08:28:00 AM 49.3775 -12.0234 276° West  Level FlightAware Approximate
Mon 08:29:00 AM 49.3885 -12.2031 275° West  Level FlightAware Approximate
Mon 08:30:00 AM 49.3991 -12.3830 275° West  Level FlightAware Approximate
Mon 08:31:00 AM 49.4095 -12.5628 275° West  Level FlightAware Approximate
Mon 08:32:00 AM 49.4196 -12.7428 275° West  Level FlightAware Approximate
Mon 08:33:00 AM 49.4294 -12.9228 275° West  Level FlightAware Approximate
Mon 08:34:00 AM 49.4390 -13.1030 275° West  Level FlightAware Approximate
Mon 08:35:00 AM 49.4482 -13.2831 275° West  Level FlightAware Approximate
Mon 08:36:00 AM 49.4572 -13.4634 274° West  Level FlightAware Approximate
Mon 08:37:00 AM 49.4659 -13.6437 274° West  Level FlightAware Approximate
Mon 08:38:00 AM 49.4743 -13.8240 274° West  Level FlightAware Approximate
Mon 08:39:00 AM 49.4825 -14.0045 274° West  Level FlightAware Approximate
Mon 08:40:00 AM 49.4903 -14.1850 274° West  Level FlightAware Approximate
Mon 08:41:00 AM 49.4979 -14.3655 274° West  Level FlightAware Approximate
Mon 08:42:00 AM 49.5333 -14.5381 275° West  Level Estimated
Mon 08:43:00 AM 49.5335 -14.7192 270° West  Level FlightAware Approximate
Mon 08:44:00 AM 49.5335 -14.9003 270° West  Level FlightAware Approximate
Mon 08:45:00 AM 49.5682 -15.0733 274° West  Level Estimated
Mon 08:46:00 AM 49.5749 -15.2542 273° West  Level FlightAware Approximate
Mon 08:47:00 AM 49.5813 -15.4348 273° West  Level FlightAware Approximate
Mon 08:48:00 AM 49.5874 -15.6154 273° West  Level FlightAware Approximate
Mon 08:49:00 AM 49.5932 -15.7961 273° West  Level FlightAware Approximate
Mon 08:50:00 AM 49.5988 -15.9768 273° West  Level FlightAware Approximate
Mon 08:51:00 AM 49.6040 -16.1576 273° West  Level FlightAware Approximate
Mon 08:52:00 AM 49.6090 -16.3384 273° West  Level FlightAware Approximate
Mon 08:53:00 AM 49.6137 -16.5192 272° West  Level FlightAware Approximate
Mon 08:54:00 AM 49.6181 -16.7001 272° West  Level FlightAware Approximate
Mon 08:55:00 AM 49.6223 -16.8810 272° West  Level FlightAware Approximate
Mon 08:56:00 AM 49.6261 -17.0619 272° West  Level FlightAware Approximate
Mon 08:57:00 AM 49.6297 -17.2429 272° West  Level FlightAware Approximate
Mon 08:58:00 AM 49.6330 -17.4238 272° West  Level FlightAware Approximate
Mon 08:59:00 AM 49.6360 -17.6049 272° West  Level FlightAware Approximate
Mon 09:00:00 AM 49.6387 -17.7859 271° West  Level FlightAware Approximate
Mon 09:01:00 AM 49.6412 -17.9669 271° West  Level FlightAware Approximate
Mon 09:02:00 AM 49.6433 -18.1480 271° West  Level FlightAware Approximate
Mon 09:03:00 AM 49.6452 -18.3291 271° West  Level FlightAware Approximate
Mon 09:04:00 AM 49.6468 -18.5102 271° West  Level FlightAware Approximate
Mon 09:05:00 AM 49.6487 -18.7818 271° West  Level FlightAware Approximate
Mon 09:06:00 AM 49.6499 -19.0535 271° West  Level FlightAware Approximate
Mon 09:07:00 AM 49.6949 -19.3162 271° West  Level Estimated
Mon 09:08:00 AM 49.6962 -19.5882 271° West  Level FlightAware Approximate
Mon 09:09:00 AM 49.6968 -19.8601 270° West  Level FlightAware Approximate
Mon 09:10:00 AM 49.6968 -20.1320 270° West  Level FlightAware Approximate
Mon 09:11:00 AM 49.6961 -20.4040 270° West  Level FlightAware Approximate
Mon 09:12:00 AM 49.6948 -20.6759 270° West  Level FlightAware Approximate
Mon 09:13:00 AM 49.6928 -20.9478 269° West  Level FlightAware Approximate
Mon 09:13:55 AM 48.0000 -20.0000 265° West 438 504 37,000  Level ETMS Enhanced Traffic Management System
Mon 09:14:00 AM 49.6903 -21.2197 269° West  Level FlightAware Approximate
Mon 09:15:00 AM 49.6870 -21.4915 269° West  Level FlightAware Approximate
Mon 09:16:00 AM 49.6846 -21.6724 269° West  Level FlightAware Approximate
Mon 09:17:00 AM 49.6818 -21.8532 269° West  Level FlightAware Approximate
Mon 09:18:00 AM 49.6787 -22.0340 269° West  Level FlightAware Approximate
Mon 09:19:00 AM 49.6754 -22.2147 268° West  Level FlightAware Approximate
Mon 09:20:00 AM 47.9109 -21.4497 264° West 438 504 37,000  Level FlightAware Transoceanic
Mon 09:21:00 AM 47.8984 -21.6305 264° West 438 504 37,000  Level FlightAware Transoceanic
Mon 09:22:00 AM 47.8857 -21.8113 264° West 438 504 37,000  Level FlightAware Transoceanic
Mon 09:23:00 AM 47.8727 -21.9919 264° West 438 504 37,000  Level FlightAware Transoceanic
Mon 09:24:00 AM 47.8595 -22.1725 264° West 438 504 37,000  Level FlightAware Transoceanic
Mon 09:25:00 AM 47.8459 -22.3530 264° West 438 504 37,000  Level FlightAware Transoceanic
Mon 09:26:00 AM 47.8321 -22.5334 263° West 438 504 37,000  Level FlightAware Transoceanic
Mon 09:27:00 AM 47.8179 -22.7137 263° West 438 504 37,000  Level FlightAware Transoceanic
Mon 09:28:00 AM 47.8035 -22.8939 263° West 438 504 37,000  Level FlightAware Transoceanic
Mon 09:29:00 AM 47.7888 -23.0739 263° West 438 504 37,000  Level FlightAware Transoceanic
Mon 09:30:00 AM 47.7739 -23.2539 263° West 438 504 37,000  Level FlightAware Transoceanic
Mon 09:31:00 AM 47.7586 -23.4338 263° West 438 504 37,000  Level FlightAware Transoceanic
Mon 09:32:00 AM 47.7431 -23.6136 263° West 438 504 37,000  Level FlightAware Transoceanic
Mon 09:33:00 AM 47.7273 -23.7932 262° West 438 504 37,000  Level FlightAware Transoceanic
Mon 09:34:00 AM 47.7112 -23.9728 262° West 438 504 37,000  Level FlightAware Transoceanic
Mon 09:35:00 AM 47.6948 -24.1523 262° West 438 504 37,000  Level FlightAware Transoceanic
Mon 09:36:00 AM 47.6782 -24.3316 262° West 438 504 37,000  Level FlightAware Transoceanic
Mon 09:37:00 AM 47.6612 -24.5108 262° West 438 504 37,000  Level FlightAware Transoceanic
Mon 09:38:00 AM 47.6440 -24.6899 262° West 438 504 37,000  Level FlightAware Transoceanic
Mon 09:39:00 AM 47.6265 -24.8689 262° West 438 504 37,000  Level FlightAware Transoceanic
Mon 09:41:34 AM 47.5804 -25.3277 261° West 438 504 37,000  Level FlightAware Transoceanic
Mon 09:43:00 AM 47.5538 -25.5836 261° West 438 504 37,000  Level FlightAware Transoceanic
Mon 09:44:00 AM 47.5349 -25.7619 261° West 438 504 37,000  Level FlightAware Transoceanic
Mon 09:45:00 AM 47.5158 -25.9402 261° West 438 504 37,000  Level FlightAware Transoceanic
Mon 09:46:00 AM 47.4964 -26.1183 261° West 438 504 37,000  Level FlightAware Transoceanic
Mon 09:47:00 AM 47.4767 -26.2962 261° West 438 504 37,000  Level FlightAware Transoceanic
Mon 09:48:00 AM 47.4567 -26.4741 260° West 438 504 37,000  Level FlightAware Transoceanic
Mon 09:49:00 AM 47.4364 -26.6518 260° West 438 504 37,000  Level FlightAware Transoceanic
Mon 09:50:00 AM 47.4159 -26.8293 260° West 438 504 37,000  Level FlightAware Transoceanic
Mon 09:51:00 AM 47.3951 -27.0067 260° West 438 504 37,000  Level FlightAware Transoceanic
Mon 09:52:00 AM 47.3740 -27.1840 260° West 438 504 37,000  Level FlightAware Transoceanic
Mon 09:53:00 AM 47.3527 -27.3612 260° West 438 504 37,000  Level FlightAware Transoceanic
Mon 09:54:00 AM 47.3311 -27.5381 260° West 438 504 37,000  Level FlightAware Transoceanic
Mon 09:55:00 AM 47.3092 -27.7150 260° West 438 504 37,000  Level FlightAware Transoceanic
Mon 09:56:00 AM 47.2870 -27.8917 259° West 438 504 37,000  Level FlightAware Transoceanic
Mon 09:57:00 AM 47.2646 -28.0682 259° West 438 504 37,000  Level FlightAware Transoceanic
Mon 09:58:00 AM 47.2419 -28.2446 259° West 438 504 37,000  Level FlightAware Transoceanic
Mon 09:59:00 AM 47.2189 -28.4209 259° West 438 504 37,000  Level FlightAware Transoceanic
Mon 10:00:00 AM 47.1956 -28.5970 259° West 438 504 37,000  Level FlightAware Transoceanic
Mon 10:01:00 AM 47.1721 -28.7729 259° West 438 504 37,000  Level FlightAware Transoceanic
Mon 10:02:00 AM 47.1483 -28.9487 259° West 438 504 37,000  Level FlightAware Transoceanic
Mon 10:03:00 AM 47.1243 -29.1243 259° West 438 504 37,000  Level FlightAware Transoceanic
Mon 10:04:00 AM 47.1000 -29.2998 258° West 438 504 37,000  Level FlightAware Transoceanic
Mon 10:05:00 AM 47.0754 -29.4751 258° West 438 504 37,000  Level FlightAware Transoceanic
Mon 10:06:00 AM 47.0505 -29.6502 258° West 438 504 37,000  Level FlightAware Transoceanic
Mon 10:07:00 AM 47.0254 -29.8252 258° West 438 504 37,000  Level FlightAware Transoceanic
Mon 10:08:00 AM 47.0525 -29.9922 283° West  Level Estimated
Mon 10:09:00 AM 47.0793 -30.1595 283° West  Level Estimated
Mon 10:10:00 AM 47.1059 -30.3268 283° West  Level Estimated
Mon 10:11:00 AM 47.1323 -30.4944 283° West  Level Estimated
Mon 10:12:00 AM 47.1584 -30.6621 283° West  Level Estimated
Mon 10:13:00 AM 47.1843 -30.8300 283° West  Level Estimated
Mon 10:14:00 AM 47.2099 -30.9980 283° West  Level Estimated
Mon 10:15:00 AM 47.2353 -31.1662 283° West  Level Estimated
Mon 10:15:07 AM 47.0000 -30.0000 265° West 439 505 37,000  Level ETMS Enhanced Traffic Management System
Mon 10:16:00 AM 47.2604 -31.3346 282° West  Level Estimated
Mon 10:17:00 AM 47.2853 -31.5028 282° West  Level Estimated
Mon 10:18:00 AM 47.3099 -31.6711 282° West  Level Estimated
Mon 10:19:00 AM 47.3342 -31.8396 282° West  Level Estimated
Mon 10:20:00 AM 47.3583 -32.0082 282° West  Level Estimated
Mon 10:21:00 AM 46.8624 -32.1335 264° West 439 505 37,000  Level FlightAware Transoceanic
Mon 10:22:00 AM 46.8492 -32.3108 264° West 439 505 37,000  Level FlightAware Transoceanic
Mon 10:23:00 AM 46.8357 -32.4879 264° West 439 505 37,000  Level FlightAware Transoceanic
Mon 10:24:00 AM 46.8219 -32.6650 263° West 439 505 37,000  Level FlightAware Transoceanic
Mon 10:25:00 AM 46.8078 -32.8420 263° West 439 505 37,000  Level FlightAware Transoceanic
Mon 10:26:00 AM 46.7935 -33.0189 263° West 439 505 37,000  Level FlightAware Transoceanic
Mon 10:27:00 AM 46.7789 -33.1958 263° West 439 505 37,000  Level FlightAware Transoceanic
Mon 10:28:00 AM 46.7640 -33.3725 263° West 439 505 37,000  Level FlightAware Transoceanic
Mon 10:29:00 AM 46.7488 -33.5491 263° West 439 505 37,000  Level FlightAware Transoceanic
Mon 10:30:00 AM 46.7334 -33.7256 263° West 439 505 37,000  Level FlightAware Transoceanic
Mon 10:31:00 AM 46.7177 -33.9020 263° West 439 505 37,000  Level FlightAware Transoceanic
Mon 10:32:00 AM 46.7017 -34.0783 262° West 439 505 37,000  Level FlightAware Transoceanic
Mon 10:33:00 AM 46.6855 -34.2545 262° West 439 505 37,000  Level FlightAware Transoceanic
Mon 10:34:00 AM 46.6690 -34.4306 262° West 439 505 37,000  Level FlightAware Transoceanic
Mon 10:35:00 AM 46.6522 -34.6066 262° West 439 505 37,000  Level FlightAware Transoceanic
Mon 10:36:00 AM 46.6351 -34.7825 262° West 439 505 37,000  Level FlightAware Transoceanic
Mon 10:37:00 AM 46.6178 -34.9583 262° West 439 505 37,000  Level FlightAware Transoceanic
Mon 10:38:00 AM 46.6002 -35.1339 262° West 439 505 37,000  Level FlightAware Transoceanic
Mon 10:39:00 AM 46.5824 -35.3094 262° West 439 505 37,000  Level FlightAware Transoceanic
Mon 10:40:00 AM 46.5642 -35.4849 261° West 439 505 37,000  Level FlightAware Transoceanic
Mon 10:41:00 AM 46.5458 -35.6602 261° West 439 505 37,000  Level FlightAware Transoceanic
Mon 10:42:00 AM 46.5272 -35.8354 261° West 439 505 37,000  Level FlightAware Transoceanic
Mon 10:43:00 AM 46.5083 -36.0104 261° West 439 505 37,000  Level FlightAware Transoceanic
Mon 10:44:00 AM 46.4891 -36.1854 261° West 439 505 37,000  Level FlightAware Transoceanic
Mon 10:45:00 AM 46.4696 -36.3602 261° West 439 505 37,000  Level FlightAware Transoceanic
Mon 10:46:00 AM 46.4499 -36.5349 261° West 439 505 37,000  Level FlightAware Transoceanic
Mon 10:47:00 AM 46.4299 -36.7094 260° West 439 505 37,000  Level FlightAware Transoceanic
Mon 10:48:00 AM 46.4096 -36.8839 260° West 439 505 37,000  Level FlightAware Transoceanic
Mon 10:49:00 AM 46.3891 -37.0582 260° West 439 505 37,000  Level FlightAware Transoceanic
Mon 10:50:00 AM 46.3683 -37.2324 260° West 439 505 37,000  Level FlightAware Transoceanic
Mon 10:51:00 AM 46.3472 -37.4064 260° West 439 505 37,000  Level FlightAware Transoceanic
Mon 10:52:00 AM 46.3259 -37.5803 260° West 439 505 37,000  Level FlightAware Transoceanic
Mon 10:53:00 AM 46.3043 -37.7541 260° West 439 505 37,000  Level FlightAware Transoceanic
Mon 10:54:00 AM 46.2825 -37.9277 260° West 439 505 37,000  Level FlightAware Transoceanic
Mon 10:55:00 AM 46.2604 -38.1012 259° West 439 505 37,000  Level FlightAware Transoceanic
Mon 10:56:00 AM 46.2380 -38.2745 259° West 439 505 37,000  Level FlightAware Transoceanic
Mon 10:57:00 AM 46.2154 -38.4478 259° West 439 505 37,000  Level FlightAware Transoceanic
Mon 10:58:00 AM 46.1925 -38.6208 259° West 439 505 37,000  Level FlightAware Transoceanic
Mon 10:59:00 AM 46.1693 -38.7937 259° West 439 505 37,000  Level FlightAware Transoceanic
Mon 11:00:00 AM 46.1459 -38.9665 259° West 439 505 37,000  Level FlightAware Transoceanic
Mon 11:01:00 AM 46.1222 -39.1391 259° West 439 505 37,000  Level FlightAware Transoceanic
Mon 11:02:00 AM 46.0983 -39.3116 259° West 439 505 37,000  Level FlightAware Transoceanic
Mon 11:03:00 AM 46.0741 -39.4839 258° West 439 505 37,000  Level FlightAware Transoceanic
Mon 11:04:00 AM 46.0497 -39.6561 258° West 439 505 37,000  Level FlightAware Transoceanic
Mon 11:05:00 AM 46.0250 -39.8281 258° West 439 505 37,000  Level FlightAware Transoceanic
Mon 11:06:00 AM 46.0472 -39.9933 281° West  Level Estimated
Mon 11:07:00 AM 46.0691 -40.1586 281° West  Level Estimated
Mon 11:08:00 AM 46.0908 -40.3240 281° West  Level Estimated
Mon 11:09:00 AM 46.1123 -40.4895 281° West  Level Estimated
Mon 11:09:22 AM 46.0000 -40.0000 258° West 463 533 37,000  Level ETMS Enhanced Traffic Management System
Mon 11:10:00 AM 46.1335 -40.6552 281° West  Level Estimated
Mon 11:11:00 AM 46.1545 -40.8210 280° West  Level Estimated
Mon 11:12:00 AM 46.1752 -40.9866 280° West  Level Estimated
Mon 11:13:00 AM 46.1957 -41.1523 280° West  Level Estimated
Mon 11:14:00 AM 46.2159 -41.3181 280° West  Level Estimated
Mon 11:15:00 AM 45.7432 -41.6238 257° West 463 533 37,000  Level FlightAware Transoceanic
Mon 11:16:00 AM 45.7132 -41.8033 256° West 463 533 37,000  Level FlightAware Transoceanic
Mon 11:17:00 AM 45.6830 -41.9826 256° West 463 533 37,000  Level FlightAware Transoceanic
Mon 11:18:00 AM 45.6525 -42.1617 256° West 463 533 37,000  Level FlightAware Transoceanic
Mon 11:19:00 AM 45.6217 -42.3406 256° West 463 533 37,000  Level FlightAware Transoceanic
Mon 11:20:00 AM 45.5906 -42.5193 256° West 463 533 37,000  Level FlightAware Transoceanic
Mon 11:21:00 AM 45.5593 -42.6978 256° West 463 533 37,000  Level FlightAware Transoceanic
Mon 11:22:00 AM 45.5277 -42.8761 256° West 463 533 37,000  Level FlightAware Transoceanic
Mon 11:23:00 AM 45.4958 -43.0542 256° West 463 533 37,000  Level FlightAware Transoceanic
Mon 11:24:00 AM 45.4636 -43.2321 255° West 463 533 37,000  Level FlightAware Transoceanic
Mon 11:25:00 AM 45.4311 -43.4098 255° West 463 533 37,000  Level FlightAware Transoceanic
Mon 11:26:00 AM 45.3984 -43.5873 255° West 463 533 37,000  Level FlightAware Transoceanic
Mon 11:27:00 AM 45.3654 -43.7646 255° West 463 533 37,000  Level FlightAware Transoceanic
Mon 11:28:00 AM 45.3321 -43.9416 255° West 463 533 37,000  Level FlightAware Transoceanic
Mon 11:29:00 AM 45.2986 -44.1185 255° West 463 533 37,000  Level FlightAware Transoceanic
Mon 11:30:00 AM 45.2648 -44.2952 255° West 463 533 37,000  Level FlightAware Transoceanic
Mon 11:31:00 AM 45.2307 -44.4716 255° West 463 533 37,000  Level FlightAware Transoceanic
Mon 11:32:00 AM 45.1963 -44.6479 254° West 463 533 37,000  Level FlightAware Transoceanic
Mon 11:33:00 AM 45.1617 -44.8239 254° West 463 533 37,000  Level FlightAware Transoceanic
Mon 11:34:00 AM 45.1267 -44.9997 254° West 463 533 37,000  Level FlightAware Transoceanic
Mon 11:35:00 AM 45.0916 -45.1753 254° West 463 533 37,000  Level FlightAware Transoceanic
Mon 11:36:00 AM 45.0561 -45.3506 254° West 463 533 37,000  Level FlightAware Transoceanic
Mon 11:37:00 AM 45.0204 -45.5258 254° West 463 533 37,000  Level FlightAware Transoceanic
Mon 11:38:00 AM 44.9844 -45.7007 254° West 463 533 37,000  Level FlightAware Transoceanic
Mon 11:39:00 AM 44.9482 -45.8755 254° West 463 533 37,000  Level FlightAware Transoceanic
Mon 11:40:00 AM 44.9117 -46.0499 253° West 463 533 37,000  Level FlightAware Transoceanic
Mon 11:41:00 AM 44.8749 -46.2242 253° West 463 533 37,000  Level FlightAware Transoceanic
Mon 11:42:00 AM 44.8378 -46.3983 253° West 463 533 37,000  Level FlightAware Transoceanic
Mon 11:43:00 AM 44.8005 -46.5721 253° West 463 533 37,000  Level FlightAware Transoceanic
Mon 11:44:00 AM 44.7630 -46.7457 253° West 463 533 37,000  Level FlightAware Transoceanic
Mon 11:45:00 AM 44.7251 -46.9191 253° West 463 533 37,000  Level FlightAware Transoceanic
Mon 11:46:00 AM 44.6870 -47.0922 253° West 463 533 37,000  Level FlightAware Transoceanic
Mon 11:47:00 AM 44.6487 -47.2651 253° West 463 533 37,000  Level FlightAware Transoceanic
Mon 11:48:00 AM 44.6101 -47.4378 252° West 463 533 37,000  Level FlightAware Transoceanic
Mon 11:49:00 AM 44.5712 -47.6103 252° West 463 533 37,000  Level FlightAware Transoceanic
Mon 11:50:00 AM 44.5320 -47.7825 252° West 463 533 37,000  Level FlightAware Transoceanic
Mon 11:51:00 AM 44.4926 -47.9545 252° West 463 533 37,000  Level FlightAware Transoceanic
Mon 11:52:00 AM 44.4530 -48.1263 252° West 463 533 37,000  Level FlightAware Transoceanic
Mon 11:53:00 AM 44.4131 -48.2978 252° West 463 533 37,000  Level FlightAware Transoceanic
Mon 11:54:00 AM 44.3729 -48.4691 252° West 463 533 37,000  Level FlightAware Transoceanic
Mon 11:55:00 AM 44.3325 -48.6401 252° West 463 533 37,000  Level FlightAware Transoceanic
Mon 11:56:00 AM 44.2918 -48.8109 252° West 463 533 37,000  Level FlightAware Transoceanic
Mon 11:57:00 AM 44.2509 -48.9815 251° West 463 533 37,000  Level FlightAware Transoceanic
Mon 11:58:00 AM 44.2097 -49.1519 251° West 463 533 37,000  Level FlightAware Transoceanic
Mon 11:59:00 AM 44.1683 -49.3220 251° West 463 533 37,000  Level FlightAware Transoceanic
Mon 12:00:00 PM 44.1266 -49.4918 251° West 463 533 37,000  Level FlightAware Transoceanic
Mon 12:01:00 PM 44.0846 -49.6615 251° West 463 533 37,000  Level FlightAware Transoceanic
Mon 12:02:00 PM 44.0424 -49.8309 251° West 463 533 37,000  Level FlightAware Transoceanic
Mon 12:03:00 PM 44.0690 -49.9891 283° West  Level Estimated
Mon 12:04:00 PM 44.0954 -50.1475 283° West  Level Estimated
Mon 12:05:00 PM 44.1215 -50.3061 283° West  Level Estimated
Mon 12:05:32 PM 44.0000 -50.0000 274° West 489 563 37,000  Level New York Oceanic (ODAPS)
Mon 12:06:00 PM 44.1474 -50.4647 283° West  Level Estimated
Mon 12:07:00 PM 44.1731 -50.6236 283° West  Level Estimated
Mon 12:08:00 PM 44.1986 -50.7825 283° West  Level Estimated
Mon 12:08:50 PM 44.0500 -51.1833 273° West 470 541 37,000  Level Gander Center
Mon 12:09:00 PM 44.2239 -50.9416 283° West  Level Estimated
Mon 12:09:50 PM 44.0500 -51.3667 270° West 460 529 37,000  Level Gander Center
Mon 12:10:00 PM 44.2489 -51.1008 282° West  Level Estimated
Mon 12:10:50 PM 44.0667 -51.5333 278° West 460 529 37,000  Level Gander Center
Mon 12:11:00 PM 44.0783 -51.6887 273° West 489 563 37,000  Level FlightAware Transoceanic
Mon 12:11:50 PM 44.0667 -51.7167 270° West 460 529 37,000  Level Gander Center
Mon 12:12:00 PM 44.0855 -51.8766 273° West 489 563 37,000  Level FlightAware Transoceanic
Mon 12:12:50 PM 44.0833 -51.8833 278° West 460 529 37,000  Level Gander Center
Mon 12:13:00 PM 44.0923 -52.0645 273° West 489 563 37,000  Level FlightAware Transoceanic
Mon 12:13:44 PM 44.0833 -52.0667 270° West 460 529 37,000  Level Moncton Center
Mon 12:14:00 PM 44.0989 -52.2525 273° West 489 563 37,000  Level FlightAware Transoceanic
Mon 12:15:50 PM 44.1000 -52.4333 274° West 470 541 37,000  Level Gander Center
Mon 12:16:44 PM 44.0833 -52.5833 261° West 450 518 37,000  Level Moncton Center
Mon 12:17:50 PM 44.1000 -52.7833 277° West 460 529 37,000  Level Gander Center
Mon 12:18:50 PM 44.1000 -52.9500 270° West 460 529 37,000  Level Gander Center
Mon 12:19:50 PM 44.1167 -53.1333 277° West 460 529 37,000  Level Gander Center
Mon 12:20:50 PM 44.1500 -53.3167 284° West 460 529 37,000  Level Gander Center
Mon 12:21:50 PM 44.1833 -53.4667 287° West 450 518 37,000  Level Gander Center
Mon 12:22:50 PM 44.2000 -53.6500 277° West 450 518 37,000  Level Gander Center
Mon 12:23:50 PM 44.2167 -53.8167 278° West 450 518 37,000  Level Gander Center
Mon 12:24:50 PM 44.2500 -54.0000 284° West 490 564 37,000  Level Gander Center
Mon 12:25:44 PM 44.2667 -54.1333 280° West 450 518 37,000  Level Moncton Center
Mon 12:26:44 PM 44.2833 -54.3000 278° West 430 495 37,000  Level Moncton Center
Mon 12:27:50 PM 44.3167 -54.4833 284° West 440 506 37,000  Level Gander Center
Mon 12:28:50 PM 44.3333 -54.6667 277° West 450 518 37,000  Level Gander Center
Mon 12:29:50 PM 44.3667 -54.8167 287° West 430 495 37,000  Level Gander Center
Mon 12:30:50 PM 44.4000 -54.9833 286° West 430 495 37,000  Level Gander Center
Mon 12:36:55 PM 44.5320 -56.0490 286° West 434 499 37,000  Level FlightAware ADS-B
Mon 12:37:38 PM 44.5430 -56.1490 279° West 434 499 37,000  Level FlightAware ADS-B
Mon 12:38:15 PM 44.5530 -56.2360 279° West 434 499 37,000  Level FlightAware ADS-B
Mon 12:39:05 PM 44.5750 -56.4090 280° West 431 496 37,000 198 Level FlightAware ADS-B
Mon 12:39:46 PM 44.5880 -56.5190 279° West 429 494 37,300 643 Climbing FlightAware ADS-B
Mon 12:40:29 PM 44.6020 -56.6380 279° West 427 491 37,900 525 Climbing FlightAware ADS-B
Mon 12:41:06 PM 44.6130 -56.7280 280° West 427 491 38,000 71 Climbing FlightAware ADS-B
Mon 12:41:54 PM 44.6250 -56.8400 279° West 427 491 38,000  Level FlightAware ADS-B
Mon 12:42:31 PM 44.6410 -56.9740 280° West 431 496 38,000  Level FlightAware ADS-B
Mon 12:43:15 PM 44.6540 -57.0930 279° West 430 495 38,000  Level FlightAware ADS-B
Mon 12:43:51 PM 44.6660 -57.1950 279° West 431 496 38,000  Level FlightAware ADS-B
Mon 12:44:31 PM 44.6770 -57.3010 278° West 431 496 38,000  Level FlightAware ADS-B
Mon 12:45:07 PM 44.6880 -57.4000 279° West 431 496 38,000  Level FlightAware ADS-B
Mon 12:45:51 PM 44.7020 -57.5250 279° West 430 495 38,000  Level FlightAware ADS-B
Mon 12:46:29 PM 44.7130 -57.6290 279° West 429 494 38,000  Level FlightAware ADS-B
Mon 12:47:09 PM 44.7250 -57.7390 279° West 429 494 38,000  Level FlightAware ADS-B
Mon 12:47:49 PM 44.7370 -57.8490 279° West 429 494 38,000  Level FlightAware ADS-B
Mon 12:48:29 PM 44.7480 -57.9580 278° West 429 494 38,000  Level FlightAware ADS-B
Mon 12:48:59 PM 44.7570 -58.0430 279° West 429 494 38,000  Level FlightAware ADS-B
Mon 12:49:49 PM 44.7710 -58.1780 278° West 429 494 38,000  Level FlightAware ADS-B
Mon 12:50:29 PM 44.7820 -58.2920 278° West 428 493 38,000  Level FlightAware ADS-B
Mon 12:51:01 PM 44.7910 -58.3770 279° West 427 491 38,000  Level FlightAware ADS-B
Mon 12:51:44 PM 44.8030 -58.4950 278° West 427 491 38,000  Level FlightAware ADS-B
Mon 12:52:29 PM 44.8150 -58.6200 278° West 425 489 38,000  Level FlightAware ADS-B
Mon 12:53:11 PM 44.8260 -58.7350 278° West 424 488 38,000  Level FlightAware ADS-B
Mon 12:53:53 PM 44.8370 -58.8470 278° West 423 487 38,000  Level FlightAware ADS-B
Mon 12:54:31 PM 44.8470 -58.9530 278° West 422 486 38,000  Level FlightAware ADS-B
Mon 12:55:15 PM 44.8590 -59.0740 278° West 421 484 38,000  Level FlightAware ADS-B
Mon 12:55:51 PM 44.8680 -59.1710 277° West 419 482 38,000  Level FlightAware ADS-B
Mon 12:56:34 PM 44.8790 -59.2850 278° West 418 481 38,000  Level FlightAware ADS-B
Mon 12:57:14 PM 44.8890 -59.3930 277° West 417 480 38,000  Level FlightAware ADS-B
Mon 12:57:58 PM 44.8990 -59.5120 277° West 415 478 38,000  Level FlightAware ADS-B
Mon 12:58:37 PM 44.9080 -59.6140 277° West 415 478 38,000  Level FlightAware ADS-B
Mon 12:59:20 PM 44.9190 -59.7320 278° West 413 475 38,000  Level FlightAware ADS-B
Mon 01:00:04 PM 44.9290 -59.8470 277° West 413 475 38,000  Level FlightAware ADS-B
Mon 01:00:44 PM 44.9380 -59.9540 277° West 411 473 38,000  Level FlightAware ADS-B
Mon 01:01:20 PM 44.9460 -60.0500 277° West 412 474 38,000  Level FlightAware ADS-B
Mon 01:02:04 PM 44.9570 -60.1670 278° West 413 475 38,000  Level FlightAware ADS-B
Mon 01:02:52 PM 44.9670 -60.2970 276° West 413 475 38,000  Level FlightAware ADS-B
Mon 01:03:35 PM 44.9770 -60.4120 277° West 415 478 38,000  Level FlightAware ADS-B
Mon 01:04:15 PM 44.9860 -60.5190 277° West 415 478 38,000  Level FlightAware ADS-B
Mon 01:04:57 PM 44.9950 -60.6330 276° West 415 478 38,000  Level FlightAware ADS-B
Mon 01:05:39 PM 45.0040 -60.7430 277° West 415 478 38,000  Level FlightAware ADS-B
Mon 01:06:23 PM 45.0130 -60.8600 276° West 415 478 38,000  Level FlightAware ADS-B
Mon 01:07:03 PM 45.0210 -60.9720 276° West 414 476 38,000  Level FlightAware ADS-B
Mon 01:08:15 PM 45.0340 -61.1390 276° West 414 476 38,000  Level FlightAware ADS-B
Mon 01:09:04 PM 45.0420 -61.2510 276° West 414 476 38,000  Level FlightAware ADS-B
Mon 01:09:39 PM 45.0480 -61.3320 276° West 414 476 38,000  Level FlightAware ADS-B
Mon 01:10:15 PM 45.0540 -61.4140 276° West 414 476 38,000  Level FlightAware ADS-B
Mon 01:11:31 PM 45.0670 -61.5880 276° West 414 476 38,000  Level FlightAware ADS-B
Mon 01:12:07 PM 45.0730 -61.6710 276° West 414 476 38,000  Level FlightAware ADS-B
Mon 01:12:57 PM 45.0820 -61.7860 276° West 414 476 38,000  Level FlightAware ADS-B
Mon 01:13:34 PM 45.0880 -61.8700 276° West 414 476 38,000  Level FlightAware ADS-B
Mon 01:14:20 PM 45.0960 -61.9760 276° West 414 476 38,000  Level FlightAware ADS-B
Mon 01:14:56 PM 45.1020 -62.0580 276° West 414 476 38,000  Level FlightAware ADS-B
Mon 01:15:32 PM 45.1080 -62.1410 276° West 414 476 38,000  Level FlightAware ADS-B
Mon 01:16:33 PM 45.1190 -62.2810 276° West 414 476 38,000  Level FlightAware ADS-B
Mon 01:16:59 PM 45.1230 -62.3410 275° West 414 476 38,000  Level FlightAware ADS-B
Mon 01:21:41 PM 45.1760 -63.2850 275° West 401 461 38,000  Level FlightAware ADS-B
Mon 01:22:18 PM 45.1810 -63.3790 274° West 400 460 38,000  Level FlightAware ADS-B
Mon 01:23:02 PM 45.1880 -63.4960 275° West 399 459 38,000  Level FlightAware ADS-B
Mon 01:23:42 PM 45.1930 -63.6010 274° West 398 458 38,000  Level FlightAware ADS-B
Mon 01:24:22 PM 45.1990 -63.7040 275° West 398 458 38,000  Level FlightAware ADS-B
Mon 01:25:02 PM 45.2040 -63.8090 274° West 398 458 38,000  Level FlightAware ADS-B
Mon 01:25:37 PM 45.2090 -63.8990 275° West 398 458 38,000  Level FlightAware ADS-B
Mon 01:26:22 PM 45.2150 -64.0160 274° West 397 457 38,000  Level FlightAware ADS-B
Mon 01:27:07 PM 45.2210 -64.1330 274° West 397 457 38,000  Level FlightAware ADS-B
Mon 01:27:49 PM 45.2260 -64.2380 274° West 396 456 38,000  Level FlightAware ADS-B
Mon 01:28:33 PM 45.2310 -64.3560 273° West 395 455 38,000  Level FlightAware ADS-B
Mon 01:29:08 PM 45.2360 -64.4460 275° West 394 453 38,000  Level FlightAware ADS-B
Mon 01:29:55 PM 45.2410 -64.5660 273° West 393 452 38,000  Level FlightAware ADS-B
Mon 01:30:38 PM 45.2460 -64.6770 274° West 393 452 38,000  Level FlightAware ADS-B
Mon 01:31:16 PM 45.2500 -64.7750 273° West 392 451 38,000  Level FlightAware ADS-B
Mon 01:32:02 PM 45.2550 -64.8940 273° West 392 451 38,000  Level FlightAware ADS-B
Mon 01:32:42 PM 45.2600 -64.9950 274° West 392 451 38,000  Level FlightAware ADS-B
Mon 01:33:14 PM 45.2630 -65.0770 273° West 392 451 38,000  Level FlightAware ADS-B
Mon 01:33:54 PM 45.2670 -65.1800 273° West 391 450 38,000  Level FlightAware ADS-B
Mon 01:34:36 PM 45.2710 -65.2870 273° West 391 450 38,000  Level FlightAware ADS-B
Mon 01:35:14 PM 45.2750 -65.3850 273° West 392 451 38,000  Level FlightAware ADS-B
Mon 01:35:54 PM 45.2790 -65.4870 273° West 392 451 38,000  Level FlightAware ADS-B
Mon 01:36:36 PM 45.2830 -65.5960 273° West 392 451 38,000  Level FlightAware ADS-B
Mon 01:37:16 PM 45.2870 -65.6980 273° West 392 451 38,000  Level FlightAware ADS-B
Mon 01:37:48 PM 45.2890 -65.7780 272° West 392 451 38,000  Level FlightAware ADS-B
Mon 01:38:36 PM 45.2940 -65.9030 273° West 391 450 38,000  Level FlightAware ADS-B
Mon 01:39:16 PM 45.2970 -66.0050 272° West 390 449 38,000  Level FlightAware ADS-B
Mon 01:40:00 PM 45.3010 -66.1160 273° West 390 449 38,000  Level FlightAware ADS-B
Mon 01:40:40 PM 45.3040 -66.2180 272° West 390 449 38,000  Level FlightAware ADS-B
Mon 01:41:18 PM 45.3070 -66.3150 273° West 390 449 38,000  Level FlightAware ADS-B
Mon 01:42:00 PM 45.3100 -66.4210 272° West 389 448 38,000  Level FlightAware ADS-B
Mon 01:42:42 PM 45.3130 -66.5300 272° West 388 447 38,000  Level FlightAware ADS-B
Mon 01:43:29 PM 45.3160 -66.6470 272° West 388 447 38,000  Level FlightAware ADS-B
Mon 01:44:08 PM 45.3190 -66.7480 272° West 388 447 38,000  Level FlightAware ADS-B
Mon 01:44:48 PM 45.3210 -66.8500 272° West 388 447 38,000  Level FlightAware ADS-B
Mon 01:45:33 PM 45.3240 -66.9630 272° West 387 445 38,000  Level FlightAware ADS-B
Mon 01:46:17 PM 45.3270 -67.0750 272° West 387 445 38,000  Level FlightAware ADS-B
Mon 01:46:57 PM 45.3290 -67.1760 272° West 386 444 38,000  Level FlightAware ADS-B
Mon 01:47:49 PM 45.3320 -67.3060 272° West 384 442 38,000  Level FlightAware ADS-B
Mon 01:48:34 PM 45.3340 -67.4200 271° West 384 442 38,000  Level FlightAware ADS-B
Mon 01:49:14 PM 45.3360 -67.5220 272° West 384 442 38,000  Level FlightAware ADS-B
Mon 01:49:50 PM 45.3380 -67.6080 272° West 384 442 38,000  Level FlightAware ADS-B
Mon 01:50:34 PM 45.3400 -67.7210 271° West 384 442 38,000  Level FlightAware ADS-B
Mon 01:51:18 PM 45.3500 -67.8320 277° West 389 448 38,000  Level FlightAware ADS-B
Mon 01:51:49 PM 45.3580 -67.9130 278° West 391 450 38,000  Level FlightAware ADS-B
Mon 01:52:32 PM 45.3690 -68.0210 278° West 392 451 38,000  Level FlightAware ADS-B
Mon 01:53:16 PM 45.3810 -68.1350 279° West 393 452 38,000  Level FlightAware ADS-B
Mon 01:53:52 PM 45.3900 -68.2250 278° West 393 452 38,000  Level FlightAware ADS-B
Mon 01:54:34 PM 45.4000 -68.3330 278° West 392 451 38,000  Level FlightAware ADS-B
Mon 01:55:13 PM 45.4100 -68.4340 278° West 392 451 38,000  Level FlightAware ADS-B
Mon 01:55:52 PM 45.4190 -68.5320 277° West 392 451 38,000  Level FlightAware ADS-B
Mon 01:56:38 PM 45.4310 -68.6500 278° West 392 451 38,000  Level FlightAware ADS-B
Mon 01:57:16 PM 45.4400 -68.7480 277° West 392 451 38,000  Level FlightAware ADS-B
Mon 01:58:04 PM 45.4510 -68.8680 277° West 390 449 38,000  Level FlightAware ADS-B
Mon 01:58:42 PM 45.4600 -68.9640 278° West 389 448 38,000  Level FlightAware ADS-B
Mon 01:59:18 PM 45.4690 -69.0560 278° West 388 447 38,000  Level FlightAware ADS-B
Mon 02:00:02 PM 45.4790 -69.1670 277° West 388 447 38,000  Level FlightAware ADS-B
Mon 02:00:38 PM 45.4870 -69.2540 278° West 387 445 38,000  Level FlightAware ADS-B
Mon 02:01:20 PM 45.4950 -69.3530 277° West 387 445 38,000  Level FlightAware ADS-B
Mon 02:02:05 PM 45.5060 -69.4760 277° West 385 443 38,000  Level FlightAware ADS-B
Mon 02:02:45 PM 45.5150 -69.5730 278° West 385 443 38,000  Level FlightAware ADS-B
Mon 02:03:30 PM 45.5240 -69.6840 277° West 383 441 38,000  Level FlightAware ADS-B
Mon 02:04:05 PM 45.5320 -69.7770 277° West 383 441 38,000  Level FlightAware ADS-B
Mon 02:04:50 PM 45.5420 -69.8870 277° West 382 440 38,000  Level FlightAware ADS-B
Mon 02:05:40 PM 45.5520 -70.0060 277° West 381 438 38,000  Level FlightAware ADS-B
Mon 02:06:20 PM 45.5600 -70.1110 276° West 380 437 38,000  Level FlightAware ADS-B
Mon 02:06:55 PM 45.5670 -70.1990 277° West 380 437 38,000  Level FlightAware ADS-B
Mon 02:07:40 PM 45.5770 -70.3120 277° West 381 438 38,000 -67 Level FlightAware ADS-B
Mon 02:08:25 PM 45.5850 -70.4240 276° West 382 440 37,900 -296 Descending FlightAware ADS-B
Mon 02:09:01 PM 45.5920 -70.5070 277° West 386 444 37,600 -750 Descending FlightAware ADS-B
Mon 02:09:45 PM 45.6020 -70.6300 277° West 393 452 36,900 -933 Descending FlightAware ADS-B
Mon 02:10:31 PM 45.6100 -70.7460 276° West 396 456 36,200 -900 Descending FlightAware ADS-B
Mon 02:11:25 PM 45.6220 -70.8930 277° West 399 459 35,400 -894 Descending FlightAware ADS-B
Mon 02:12:05 PM 45.6290 -70.9970 276° West 401 461 34,800 -847 Descending FlightAware ADS-B
Mon 02:12:50 PM 45.6380 -71.1170 276° West 409 471 34,200 -837 Descending FlightAware ADS-B
Mon 02:13:31 PM 45.6460 -71.2240 276° West 414 476 33,600 -918 Descending FlightAware ADS-B
Mon 02:14:15 PM 45.6550 -71.3470 276° West 416 479 32,900 -571 Descending FlightAware ADS-B
Mon 02:14:55 PM 45.6620 -71.4540 275° West 413 475 32,800 -225 Descending FlightAware ADS-B
Mon 02:15:35 PM 45.6700 -71.5620 276° West 414 476 32,600 -282 Descending FlightAware ADS-B
Mon 02:16:20 PM 45.6780 -71.6840 275° West 415 478 32,400 -333 Descending FlightAware ADS-B
Mon 02:17:05 PM 45.6860 -71.8070 275° West 416 479 32,100 -424 Descending FlightAware ADS-B
Mon 02:17:45 PM 45.6940 -71.9160 276° West 416 479 31,800 -375 Descending FlightAware ADS-B
Mon 02:18:25 PM 45.7000 -72.0200 275° West 417 480 31,600 -424 Descending FlightAware ADS-B
Mon 02:19:10 PM 45.7090 -72.1490 276° West 419 482 31,200 -1,059 Descending FlightAware ADS-B
Mon 02:19:50 PM 45.7160 -72.2590 275° West 417 480 30,100 -2,274 Descending FlightAware ADS-B
Mon 02:20:45 PM 45.7250 -72.4100 275° West 416 479 27,600 -2,700 Descending FlightAware ADS-B
Mon 02:21:30 PM 45.7320 -72.5310 275° West 406 467 25,600 -2,625 Descending FlightAware ADS-B
Mon 02:22:05 PM 45.7380 -72.6230 275° West 400 460 24,100 -2,640 Descending FlightAware ADS-B
Mon 02:22:45 PM 45.7440 -72.7280 275° West 396 456 22,300 -2,625 Descending FlightAware ADS-B
Mon 02:23:25 PM 45.7390 -72.8290 266° West 387 445 20,600 -2,571 Descending FlightAware ADS-B
Mon 02:24:09 PM 45.7270 -72.9410 261° West 386 444 18,700 -2,659 Descending FlightAware ADS-B
Mon 02:24:53 PM 45.7160 -73.0530 262° West 388 447 16,700 -2,707 Descending FlightAware ADS-B
Mon 02:25:31 PM 45.6980 -73.1450 254° West 384 442 15,000 -2,561 Descending FlightAware ADS-B
Mon 02:26:15 PM 45.6580 -73.2410 239° Southwest 377 434 13,200 -2,154 Descending FlightAware ADS-B
Mon 02:26:49 PM 45.6270 -73.3100 237° Southwest 361 415 12,200 -1,895 Descending FlightAware ADS-B
Mon 02:27:31 PM 45.5890 -73.3930 237° Southwest 352 405 10,800 -1,674 Descending FlightAware ADS-B
Mon 02:28:15 PM 45.5450 -73.4650 229° Southwest 309 356 9,800 -1,417 Descending FlightAware ADS-B
Mon 02:28:43 PM 45.5170 -73.5030 224° Southwest 285 328 9,100 -1,393 Descending FlightAware ADS-B
Mon 02:29:11 PM 45.4910 -73.5370 223° Southwest 279 321 8,500 -1,091 Descending FlightAware ADS-B
Mon 02:29:27 PM 45.4750 -73.5570 221° Southwest 271 312 8,300 -1,091 Descending FlightAware ADS-B
Mon 02:29:55 PM 45.4490 -73.5910 223° Southwest 264 304 7,700 -1,333 Descending FlightAware ADS-B
Mon 02:30:21 PM 45.4260 -73.6220 223° Southwest 266 306 7,100 -1,333 Descending FlightAware ADS-B
Mon 02:30:49 PM 45.4010 -73.6540 222° Southwest 266 306 6,500 -1,143 Descending FlightAware ADS-B
Mon 02:31:03 PM 45.3890 -73.6700 223° Southwest 260 299 6,300 -818 Descending FlightAware ADS-B
Mon 02:31:33 PM 45.3630 -73.7050 223° Southwest 245 282 5,900 -889 Descending FlightAware ADS-B
Mon 02:31:57 PM 45.3430 -73.7300 221° Southwest 240 276 5,500 -1,071 Descending FlightAware ADS-B
Mon 02:32:29 PM 45.3170 -73.7640 223° Southwest 240 276 4,900 -1,345 Descending FlightAware ADS-B
Mon 02:32:55 PM 45.2950 -73.7930 223° Southwest 245 282 4,200 -1,571 Descending FlightAware ADS-B
Mon 02:33:11 PM 45.2820 -73.8100 223° Southwest 250 288 3,800 -1,500 Descending FlightAware ADS-B
Mon 02:33:39 PM 45.2590 -73.8430 225° Southwest 252 290 3,100 -1,350 Descending FlightAware ADS-B
Mon 02:33:51 PM 45.2550 -73.8620 253° West 248 285 2,900 -300 Descending FlightAware ADS-B
Mon 02:34:19 PM 45.2650 -73.9000 291° West 212 244 2,900  Level FlightAware ADS-B
Mon 02:34:32 PM 45.2730 -73.9130 311° West 208 239 2,900  Level FlightAware ADS-B
Mon 02:34:59 PM 45.2920 -73.9390 316° Northwest 204 235 2,900  Level FlightAware ADS-B
Mon 02:35:11 PM 45.3020 -73.9430 344° North 195 224 2,900 -143 Level FlightAware ADS-B
Mon 02:35:41 PM 45.3280 -73.9340 14° North 189 217 2,800  Descending FlightAware ADS-B
Mon 02:35:49 PM 45.3340 -73.9290 30° Northeast 188 216 2,900 273 Climbing FlightAware ADS-B
Mon 02:36:03 PM 45.3430 -73.9190 38° Northeast 184 212 2,900 -150 Level FlightAware ADS-B
Mon 02:36:29 PM 45.3580 -73.8990 43° Northeast 166 191 2,800 -724 Descending FlightAware ADS-B
Mon 02:37:01 PM 45.3780 -73.8740 41° Northeast 179 206 2,200 -1,034 Descending FlightAware ADS-B
Mon 02:37:27 PM 45.3930 -73.8540 43° Northeast 164 189 1,800 -900 Descending FlightAware ADS-B
Mon 02:37:41 PM 45.4000 -73.8440 45° Northeast 153 176 1,600 -875 Descending FlightAware ADS-B
Mon 02:38:15 PM 45.4180 -73.8210 42° Northeast 144 166 1,100 -778 Descending FlightAware ADS-B
Mon 02:38:35 PM 45.4270 -73.8100 41° Northeast 136 157 900 -720 Descending FlightAware ADS-B
Mon 02:39:05 PM 45.4420 -73.7910 42° Northeast 142 163 500 -857 Descending FlightAware ADS-B
Mon 02:39:17 PM 45.4480 -73.7820 46° Northeast 142 163 300 -1,000 Descending FlightAware ADS-B
Mon 02:39:45 PM 45.4600 -73.7670 41° Northeast 137 158 -643 Descending FlightAware ADS-B
Mon 02:40:41 PM 45.4730 -73.7480 46° Northeast 27 31  Level FlightAware ADS-B
Mon 02:41:30 PM 45.4730 -73.7450 90° East 9 10  Level FlightAware ADS-B
Mon 02:42:00 PM 45.4720 -73.7470 235° Southwest 16 18  Level FlightAware ADS-B
Mon 02:42:25 PM 45.4700 -73.7490 215° Southwest 22 25  Level FlightAware ADS-B
Mon 02:42:55 PM 45.4680 -73.7520 226° Southwest 29 33  Level FlightAware ADS-B
Mon 02:43:26 PM 45.4650 -73.7560 223° Southwest 24 28  Level FlightAware ADS-B
Mon 02:43:35 PM 45.4640 -73.7570 215° Southwest 18 21  Level FlightAware ADS-B
Mon 02:43:51 PM 45.4630 -73.7570 180° South 20 23  Level FlightAware ADS-B

Login

Don't have an account? Register now (free) for customized features, flight alerts, and more!